Terminal Aerodrome Forecast
Issued by NWS

Home | Current Version | Previous Version | Text Only | Print | Product List | Glossary On
Versions: 1 2 3 4 5 6 7 8 9 10 11 12 13
705
FTUS46 KPDT 171740
TAFYKM
TAF
KYKM 171740Z 1718/1818 22012KT P6SM VCSH SCT060 BKN080
     FM172000 26020G30KT P6SM VCSH SCT050 BKN070
     FM172300 27030G40KT P6SM SCT050
     FM180500 26018G25KT P6SM SKC=

USA.gov is the U.S. government's official web portal to all federal, state and local government web resources and services.